Time;durP1;ratioP1;P1;durP2;ratioP2;P2;SDS_P1;SDS_P2;PMS_P1;PMS_P2;Temp;Humidity;BMP_temperature;BMP_pressure;BME280_temperature;BME280_humidity;BME280_pressure;Samples;Min_cycle;Max_cycle;Signal;HPM_P1;HPM_P2
2023/05/06 00:01:36;;;;;;;;;;;9.90;99.90;;;;;;5117967;28;20007;-64
2023/05/06 00:04:01;;;;;;;;;;;9.90;99.90;;;;;;5118229;28;19919;-64
2023/05/06 00:06:27;;;;;;;;;;;9.90;99.90;;;;;;5118185;28;20273;-65
2023/05/06 00:08:53;;;;;;;;;;;9.90;99.90;;;;;;5118190;28;19911;-64
2023/05/06 00:11:19;;;;;;;;;;;9.80;99.90;;;;;;5118174;28;20266;-64
2023/05/06 00:13:45;;;;;;;;;;;9.80;99.90;;;;;;5117712;28;19964;-64
2023/05/06 00:16:11;;;;;;;;;;;9.70;99.90;;;;;;5117751;28;19912;-64
2023/05/06 00:18:37;;;;;;;;;;;9.60;99.90;;;;;;5117721;28;19923;-64
2023/05/06 00:21:03;;;;;;;;;;;9.70;99.90;;;;;;5117903;28;19919;-64
2023/05/06 00:23:28;;;;;;;;;;;9.60;99.90;;;;;;5117902;28;20370;-64
2023/05/06 00:25:54;;;;;;;;;;;9.70;99.90;;;;;;5117924;28;19912;-64
2023/05/06 00:28:20;;;;;;;;;;;9.70;99.90;;;;;;5117903;28;19912;-64
2023/05/06 00:30:46;;;;;;;;;;;9.60;99.90;;;;;;5117613;28;19912;-64
2023/05/06 00:33:12;;;;;;;;;;;9.60;99.90;;;;;;5117464;28;20386;-64
2023/05/06 00:35:39;;;;;;;;;;;9.60;99.90;;;;;;5117643;28;19954;-64
2023/05/06 00:38:06;;;;;;;;;;;9.60;99.90;;;;;;5117459;28;19919;-64
2023/05/06 00:40:32;;;;;;;;;;;9.60;99.90;;;;;;5117786;28;19969;-64
2023/05/06 00:42:57;;;;;;;;;;;9.50;99.90;;;;;;5117417;28;19916;-64
2023/05/06 00:45:24;;;;;;;;;;;9.50;99.90;;;;;;5102753;28;19916;-64
2023/05/06 00:47:50;;;;;;;;;;;9.50;99.90;;;;;;5097197;28;19916;-64
2023/05/06 00:50:16;;;;;;;;;;;9.50;99.90;;;;;;5097232;28;19912;-64
2023/05/06 00:52:44;;;;;;;;;;;9.40;99.90;;;;;;5078889;28;20393;-64
2023/05/06 00:55:10;;;;;;;;;;;9.40;99.90;;;;;;5078614;28;20496;-64
2023/05/06 00:57:36;;;;;;;;;;;9.40;99.90;;;;;;5078626;28;19947;-64
2023/05/06 01:00:02;;;;;;;;;;;9.40;99.90;;;;;;5096665;28;20016;-64
2023/05/06 01:02:28;;;;;;;;;;;9.40;99.90;;;;;;5077506;28;19916;-64
2023/05/06 01:04:54;;;;;;;;;;;9.30;99.90;;;;;;5078375;28;19912;-64
2023/05/06 01:07:23;;;;;;;;;;;9.30;99.90;;;;;;5078474;28;19912;-64
2023/05/06 01:09:49;;;;;;;;;;;9.30;99.90;;;;;;5096297;28;20102;-64
2023/05/06 01:12:34;;;;;;;;;;;9.20;99.90;;;;;;5078335;28;19951;-64
2023/05/06 01:15:08;;;;;;;;;;;9.10;99.90;;;;;;5096465;28;19912;-64
2023/05/06 01:17:37;;;;;;;;;;;9.10;99.90;;;;;;5096197;28;19912;-64
2023/05/06 01:20:05;;;;;;;;;;;9.10;99.90;;;;;;5096291;28;19959;-64
2023/05/06 01:22:33;;;;;;;;;;;9.10;99.90;;;;;;5096271;28;20007;-64
2023/05/06 01:24:58;;;;;;;;;;;9.10;99.90;;;;;;5096276;28;19965;-64
2023/05/06 01:27:24;;;;;;;;;;;9.10;99.90;;;;;;5096089;28;20366;-64
2023/05/06 01:29:50;;;;;;;;;;;9.10;99.90;;;;;;5096227;28;20358;-64
2023/05/06 01:32:20;;;;;;;;;;;9.10;99.90;;;;;;5096250;28;19912;-64
2023/05/06 01:34:55;;;;;;;;;;;9.10;99.90;;;;;;5095891;28;19912;-64
2023/05/06 01:37:47;;;;;;;;;;;9.10;99.90;;;;;;5095995;28;20396;-64
2023/05/06 01:40:14;;;;;;;;;;;9.10;99.90;;;;;;5073911;28;20024;-64
2023/05/06 01:42:40;;;;;;;;;;;9.20;99.90;;;;;;5077721;28;19922;-64
2023/05/06 01:45:07;;;;;;;;;;;9.20;99.90;;;;;;5107778;28;20270;-64
2023/05/06 01:47:33;;;;;;;;;;;9.00;99.90;;;;;;5116141;28;19938;-64
2023/05/06 01:50:00;;;;;;;;;;;8.90;99.90;;;;;;5116184;28;19938;-64
2023/05/06 01:52:26;;;;;;;;;;;8.90;99.90;;;;;;5116053;28;19968;-64
2023/05/06 01:54:51;;;;;;;;;;;8.90;99.90;;;;;;5116096;28;20373;-64
2023/05/06 01:57:17;;;;;;;;;;;8.80;99.90;;;;;;5116091;28;19951;-64
2023/05/06 01:59:43;;;;;;;;;;;8.90;99.90;;;;;;5131680;27;20380;-64
2023/05/06 02:02:09;;;;;;;;;;;8.90;99.90;;;;;;5131653;27;19965;-64
2023/05/06 02:04:35;;;;;;;;;;;8.90;99.90;;;;;;5097549;28;19907;-64
2023/05/06 02:07:01;;;;;;;;;;;8.80;99.90;;;;;;5097667;28;19923;-64
2023/05/06 02:09:27;;;;;;;;;;;8.80;99.90;;;;;;5115750;28;19912;-64
2023/05/06 02:11:57;;;;;;;;;;;8.80;99.90;;;;;;5097470;28;19911;-64
2023/05/06 02:14:23;;;;;;;;;;;8.90;99.90;;;;;;5131404;27;19915;-64
2023/05/06 02:16:50;;;;;;;;;;;8.90;99.90;;;;;;5097726;28;20434;-64
2023/05/06 02:19:16;;;;;;;;;;;8.90;99.90;;;;;;5093898;28;19924;-64
2023/05/06 02:21:42;;;;;;;;;;;8.90;99.90;;;;;;5127813;27;19920;-64
2023/05/06 02:24:07;;;;;;;;;;;8.90;99.90;;;;;;5093887;28;19908;-64
2023/05/06 02:26:33;;;;;;;;;;;8.90;99.90;;;;;;5093939;28;19911;-64
2023/05/06 02:28:59;;;;;;;;;;;8.90;99.90;;;;;;5094084;28;20377;-64
2023/05/06 02:31:25;;;;;;;;;;;9.10;99.90;;;;;;5095240;28;19916;-64
2023/05/06 02:33:50;;;;;;;;;;;9.00;99.90;;;;;;5093800;28;19912;-64
2023/05/06 02:36:16;;;;;;;;;;;8.90;99.90;;;;;;5095113;28;20365;-64
2023/05/06 02:38:42;;;;;;;;;;;8.70;99.90;;;;;;5094976;28;20312;-64
2023/05/06 02:41:09;;;;;;;;;;;8.70;99.90;;;;;;5095114;28;20559;-64
2023/05/06 02:43:35;;;;;;;;;;;8.60;99.90;;;;;;5093630;28;20057;-64
2023/05/06 02:46:01;;;;;;;;;;;8.50;99.90;;;;;;5075452;28;19944;-64
2023/05/06 02:48:26;;;;;;;;;;;8.50;99.90;;;;;;5074489;28;19912;-64
2023/05/06 02:50:52;;;;;;;;;;;8.40;99.90;;;;;;5056633;28;19916;-64
2023/05/06 02:53:18;;;;;;;;;;;8.40;99.90;;;;;;5074666;28;19920;-64
2023/05/06 02:55:44;;;;;;;;;;;8.40;99.90;;;;;;5074662;28;19991;-64
2023/05/06 02:58:10;;;;;;;;;;;8.30;99.90;;;;;;5074556;28;19913;-64
2023/05/06 03:00:35;;;;;;;;;;;8.30;99.90;;;;;;5056552;28;20316;-63
2023/05/06 03:03:01;;;;;;;;;;;8.30;99.90;;;;;;5056486;28;19917;-64
2023/05/06 03:05:27;;;;;;;;;;;8.30;99.90;;;;;;5074950;28;20179;-64
2023/05/06 03:07:54;;;;;;;;;;;8.30;99.90;;;;;;5053248;28;19975;-64
2023/05/06 03:10:20;;;;;;;;;;;8.40;99.90;;;;;;5056137;28;19908;-64
2023/05/06 03:12:46;;;;;;;;;;;8.40;99.90;;;;;;5056643;28;20385;-64
2023/05/06 03:15:11;;;;;;;;;;;8.40;99.90;;;;;;5055144;28;20364;-64
2023/05/06 03:17:37;;;;;;;;;;;8.30;99.90;;;;;;5056337;28;19912;-64
2023/05/06 03:20:07;;;;;;;;;;;8.20;99.90;;;;;;5056472;28;19922;-64
2023/05/06 03:22:35;;;;;;;;;;;8.20;99.90;;;;;;5056275;28;20396;-64
2023/05/06 03:25:01;;;;;;;;;;;8.10;99.90;;;;;;5056548;28;19913;-64
2023/05/06 03:27:30;;;;;;;;;;;8.10;99.90;;;;;;5060279;28;19913;-64
2023/05/06 03:30:01;;;;;;;;;;;8.20;99.90;;;;;;5060150;28;19970;-64
2023/05/06 03:32:28;;;;;;;;;;;8.20;99.90;;;;;;5093861;28;20353;-64
2023/05/06 03:34:54;;;;;;;;;;;8.20;99.90;;;;;;5059948;28;20310;-64
2023/05/06 03:37:20;;;;;;;;;;;8.20;99.90;;;;;;5060107;28;19913;-64
2023/05/06 03:39:51;;;;;;;;;;;8.20;99.90;;;;;;5060025;28;19912;-64
2023/05/06 03:42:19;;;;;;;;;;;8.20;99.90;;;;;;5059975;28;19916;-64
2023/05/06 03:44:46;;;;;;;;;;;8.10;99.90;;;;;;5059671;28;19958;-64
2023/05/06 03:47:12;;;;;;;;;;;8.20;99.90;;;;;;5093408;28;19913;-64
2023/05/06 03:49:37;;;;;;;;;;;8.20;99.90;;;;;;5059899;28;20057;-64
2023/05/06 03:52:04;;;;;;;;;;;8.20;99.90;;;;;;5059817;28;19974;-63
2023/05/06 03:54:30;;;;;;;;;;;8.20;99.90;;;;;;5059859;28;19908;-63
2023/05/06 03:56:56;;;;;;;;;;;8.30;99.90;;;;;;5059581;28;20298;-63
2023/05/06 03:59:22;;;;;;;;;;;8.30;99.90;;;;;;5059544;28;19966;-63
2023/05/06 04:01:49;;;;;;;;;;;8.30;99.90;;;;;;5059671;28;20321;-63
2023/05/06 04:04:16;;;;;;;;;;;8.20;99.90;;;;;;5059523;28;19982;-63
2023/05/06 04:06:42;;;;;;;;;;;8.20;99.90;;;;;;5077692;28;19913;-63
2023/05/06 04:09:08;;;;;;;;;;;8.20;99.90;;;;;;5059273;28;19913;-63
2023/05/06 04:11:37;;;;;;;;;;;8.20;99.90;;;;;;5059151;28;19912;-63
2023/05/06 04:14:04;;;;;;;;;;;8.30;99.90;;;;;;5059413;28;20437;-64
2023/05/06 04:16:30;;;;;;;;;;;8.30;99.90;;;;;;5077476;28;19951;-63
2023/05/06 04:18:56;;;;;;;;;;;8.50;99.90;;;;;;5077081;28;20085;-63
2023/05/06 04:21:22;;;;;;;;;;;8.50;99.90;;;;;;5051012;28;19920;-63
2023/05/06 04:23:55;;;;;;;;;;;8.60;99.90;;;;;;5092576;28;19917;-63
2023/05/06 04:26:28;;;;;;;;;;;8.70;99.90;;;;;;5092712;28;19919;-63
2023/05/06 04:28:54;;;;;;;;;;;8.90;99.90;;;;;;5059151;28;19912;-63
2023/05/06 04:31:22;;;;;;;;;;;8.90;99.90;;;;;;5092651;28;19919;-63
2023/05/06 04:33:49;;;;;;;;;;;9.00;99.90;;;;;;5058984;28;19908;-63
2023/05/06 04:36:19;;;;;;;;;;;9.00;99.90;;;;;;5058882;28;19918;-63
2023/05/06 04:38:55;;;;;;;;;;;9.10;99.90;;;;;;5092462;28;19985;-63
2023/05/06 04:41:22;;;;;;;;;;;9.10;99.90;;;;;;5058981;28;19912;-63
2023/05/06 04:43:48;;;;;;;;;;;9.10;99.90;;;;;;5059011;28;19912;-63
2023/05/06 04:46:19;;;;;;;;;;;9.20;99.90;;;;;;5058631;28;20340;-63
2023/05/06 04:48:46;;;;;;;;;;;9.30;99.90;;;;;;5058777;28;19912;-63
2023/05/06 04:51:14;;;;;;;;;;;9.40;99.90;;;;;;5058429;28;19959;-63
2023/05/06 04:53:40;;;;;;;;;;;9.40;99.90;;;;;;5058684;28;20029;-63
2023/05/06 04:56:06;;;;;;;;;;;9.60;99.90;;;;;;5058563;28;19916;-63
2023/05/06 04:58:33;;;;;;;;;;;9.80;99.90;;;;;;5058453;28;20385;-63
2023/05/06 05:01:02;;;;;;;;;;;9.90;99.90;;;;;;5076592;28;19917;-63
2023/05/06 05:03:28;;;;;;;;;;;10.10;99.90;;;;;;5092104;28;19958;-63
2023/05/06 05:05:56;;;;;;;;;;;10.20;99.90;;;;;;5058181;28;19913;-63
2023/05/06 05:08:22;;;;;;;;;;;10.40;99.90;;;;;;5091897;28;19919;-63
2023/05/06 05:10:49;;;;;;;;;;;10.40;99.90;;;;;;5058145;28;19919;-63
2023/05/06 05:13:20;;;;;;;;;;;10.50;99.90;;;;;;5058183;28;19913;-63
2023/05/06 05:15:47;;;;;;;;;;;10.70;99.90;;;;;;5058301;28;20392;-63
2023/05/06 05:18:14;;;;;;;;;;;10.80;99.90;;;;;;5058056;28;19930;-63
2023/05/06 05:20:40;;;;;;;;;;;11.00;99.90;;;;;;5058051;28;19923;-63
2023/05/06 05:23:09;;;;;;;;;;;11.10;99.90;;;;;;5057799;28;19920;-63
2023/05/06 05:25:35;;;;;;;;;;;11.30;99.90;;;;;;5058007;28;19912;-64
2023/05/06 05:28:00;;;;;;;;;;;11.30;99.90;;;;;;5075866;28;19931;-64
2023/05/06 05:30:27;;;;;;;;;;;11.50;99.90;;;;;;5057906;28;19935;-64
2023/05/06 05:32:53;;;;;;;;;;;11.70;99.90;;;;;;5057799;28;19916;-64
2023/05/06 05:35:19;;;;;;;;;;;11.80;99.90;;;;;;5075641;28;20389;-64
2023/05/06 05:37:46;;;;;;;;;;;12.00;99.90;;;;;;5057794;28;19912;-64
2023/05/06 05:40:13;;;;;;;;;;;12.20;99.90;;;;;;5057792;28;19923;-65
2023/05/06 05:42:40;;;;;;;;;;;12.30;99.90;;;;;;5057536;28;20385;-64
2023/05/06 05:45:14;;;;;;;;;;;12.50;99.90;;;;;;5055177;28;19916;-64
2023/05/06 05:47:41;;;;;;;;;;;12.60;99.90;;;;;;5057272;28;19969;-64
2023/05/06 05:50:07;;;;;;;;;;;12.80;99.90;;;;;;5057349;28;19913;-64
2023/05/06 05:52:35;;;;;;;;;;;12.80;99.90;;;;;;5057437;28;20354;-64
2023/05/06 05:55:01;;;;;;;;;;;12.90;99.90;;;;;;5057473;28;19916;-65
2023/05/06 05:57:27;;;;;;;;;;;13.20;99.90;;;;;;5075273;28;20331;-65
2023/05/06 05:59:53;;;;;;;;;;;13.40;99.90;;;;;;5075405;28;19920;-65
2023/05/06 06:02:19;;;;;;;;;;;13.60;99.90;;;;;;5075093;28;19924;-65
2023/05/06 06:04:45;;;;;;;;;;;13.80;99.90;;;;;;5057303;28;19912;-65
2023/05/06 06:07:11;;;;;;;;;;;13.80;99.90;;;;;;5075273;28;19923;-65
2023/05/06 06:09:40;;;;;;;;;;;13.80;99.90;;;;;;5056926;28;19916;-65
2023/05/06 06:12:07;;;;;;;;;;;14.00;99.90;;;;;;5056983;28;19920;-65
2023/05/06 06:14:35;;;;;;;;;;;14.40;99.90;;;;;;5057432;28;19912;-65
2023/05/06 06:17:01;;;;;;;;;;;14.50;99.90;;;;;;5090731;28;19947;-64
2023/05/06 06:19:27;;;;;;;;;;;14.70;99.90;;;;;;5090440;28;19920;-65
2023/05/06 06:21:53;;;;;;;;;;;14.80;99.90;;;;;;5074951;28;20259;-65
2023/05/06 06:24:19;;;;;;;;;;;15.00;99.90;;;;;;5056858;28;19912;-65
2023/05/06 06:26:45;;;;;;;;;;;15.10;99.90;;;;;;5057327;28;20420;-65
2023/05/06 06:29:11;;;;;;;;;;;15.20;99.90;;;;;;5074795;28;19912;-65
2023/05/06 06:31:37;;;;;;;;;;;15.30;99.90;;;;;;5074772;28;19938;-65
2023/05/06 06:34:05;;;;;;;;;;;15.40;99.90;;;;;;5074756;28;19917;-65
2023/05/06 06:36:31;;;;;;;;;;;15.70;99.90;;;;;;5057006;28;19920;-65
2023/05/06 06:38:57;;;;;;;;;;;15.90;99.90;;;;;;5074851;28;19920;-65
2023/05/06 06:41:23;;;;;;;;;;;16.00;99.90;;;;;;5074743;28;20370;-65
2023/05/06 06:43:48;;;;;;;;;;;16.20;99.90;;;;;;5074847;28;20369;-65
2023/05/06 06:46:22;;;;;;;;;;;16.50;99.90;;;;;;5056707;28;19912;-65
2023/05/06 06:48:47;;;;;;;;;;;16.80;99.90;;;;;;5074741;28;19966;-65
2023/05/06 06:51:13;;;;;;;;;;;17.10;99.90;;;;;;5074761;28;19923;-65
2023/05/06 06:53:39;;;;;;;;;;;17.30;99.90;;;;;;5074669;28;19913;-65
2023/05/06 06:56:08;;;;;;;;;;;17.50;99.90;;;;;;5074690;28;19959;-65
2023/05/06 06:58:34;;;;;;;;;;;17.70;99.90;;;;;;5074660;28;19916;-65
2023/05/06 07:01:00;;;;;;;;;;;18.20;99.90;;;;;;5076421;28;20011;-65
2023/05/06 07:03:25;;;;;;;;;;;18.60;98.30;;;;;;5078739;28;19916;-65
2023/05/06 07:05:51;;;;;;;;;;;19.00;97.80;;;;;;5078643;28;19917;-65
2023/05/06 07:08:20;;;;;;;;;;;19.30;96.00;;;;;;5078650;28;19916;-65
2023/05/06 07:10:46;;;;;;;;;;;19.50;93.10;;;;;;5078450;28;19912;-65
2023/05/06 07:13:11;;;;;;;;;;;19.90;94.10;;;;;;5078484;28;19982;-65
2023/05/06 07:15:37;;;;;;;;;;;20.30;91.90;;;;;;5078465;28;19948;-65
2023/05/06 07:18:03;;;;;;;;;;;20.70;90.80;;;;;;5078277;28;19924;-65
2023/05/06 07:20:29;;;;;;;;;;;20.50;90.10;;;;;;5078450;28;19916;-65
2023/05/06 07:22:55;;;;;;;;;;;20.90;87.70;;;;;;5078143;28;20007;-65
2023/05/06 07:25:21;;;;;;;;;;;21.10;87.90;;;;;;5078084;28;19959;-65
2023/05/06 07:27:46;;;;;;;;;;;21.50;86.70;;;;;;5078530;28;19919;-65
2023/05/06 07:30:12;;;;;;;;;;;22.00;86.10;;;;;;5078150;28;19924;-65
2023/05/06 07:32:40;;;;;;;;;;;22.40;81.80;;;;;;5078229;28;19978;-65
2023/05/06 07:35:06;;;;;;;;;;;22.50;78.70;;;;;;5078057;28;19919;-65
2023/05/06 07:37:32;;;;;;;;;;;22.50;76.30;;;;;;5078154;28;19920;-65
2023/05/06 07:39:57;;;;;;;;;;;22.50;78.00;;;;;;5077987;28;19916;-65
2023/05/06 07:42:23;;;;;;;;;;;22.80;74.90;;;;;;5077863;28;20030;-65
2023/05/06 07:44:49;;;;;;;;;;;23.20;75.00;;;;;;5077641;28;19976;-65
2023/05/06 07:47:24;;;;;;;;;;;23.40;73.00;;;;;;5077874;28;19920;-65
2023/05/06 07:49:50;;;;;;;;;;;23.60;71.70;;;;;;5077801;28;20457;-66
2023/05/06 07:52:15;;;;;;;;;;;24.00;74.20;;;;;;5077841;28;19962;-65
2023/05/06 07:54:41;;;;;;;;;;;24.30;70.90;;;;;;5077736;28;19916;-65
2023/05/06 07:57:07;;;;;;;;;;;24.60;69.30;;;;;;5077638;28;19912;-65
2023/05/06 07:59:33;;;;;;;;;;;24.80;67.50;;;;;;5077650;28;19970;-65
2023/05/06 08:01:58;;;;;;;;;;;25.10;66.60;;;;;;5077550;28;20024;-65
2023/05/06 08:04:24;;;;;;;;;;;25.10;64.90;;;;;;5077725;28;19920;-65
2023/05/06 08:06:50;;;;;;;;;;;25.20;64.40;;;;;;5077563;28;19913;-65
2023/05/06 08:09:16;;;;;;;;;;;25.40;65.20;;;;;;5077228;28;19944;-66
2023/05/06 08:11:41;;;;;;;;;;;25.70;60.30;;;;;;5077319;28;19999;-65
2023/05/06 08:14:07;;;;;;;;;;;25.70;58.00;;;;;;5077411;28;19913;-66
2023/05/06 08:16:34;;;;;;;;;;;26.10;56.80;;;;;;5077620;28;20007;-65
2023/05/06 08:19:00;;;;;;;;;;;26.00;53.00;;;;;;5077211;28;19925;-65
2023/05/06 08:21:26;;;;;;;;;;;26.10;53.40;;;;;;5077410;28;19919;-66
2023/05/06 08:23:52;;;;;;;;;;;25.90;50.00;;;;;;5077035;28;19921;-65
2023/05/06 08:26:18;;;;;;;;;;;26.50;52.10;;;;;;5077325;28;19958;-65
2023/05/06 08:28:43;;;;;;;;;;;27.20;49.20;;;;;;5077591;28;19923;-65
2023/05/06 08:31:09;;;;;;;;;;;27.60;45.30;;;;;;5077065;28;19912;-65
2023/05/06 08:33:35;;;;;;;;;;;25.90;41.70;;;;;;5076982;28;19913;-65
2023/05/06 08:36:01;;;;;;;;;;;26.50;42.70;;;;;;5077096;28;19954;-65
2023/05/06 08:38:27;;;;;;;;;;;27.00;36.50;;;;;;5076822;28;19917;-66
2023/05/06 08:40:53;;;;;;;;;;;27.30;36.00;;;;;;5077016;28;20127;-65
2023/05/06 08:43:19;;;;;;;;;;;27.60;35.70;;;;;;5076872;28;20185;-65
2023/05/06 08:45:45;;;;;;;;;;;28.00;32.80;;;;;;5076557;28;19912;-66
2023/05/06 08:48:11;;;;;;;;;;;26.80;31.50;;;;;;5076718;28;19919;-65
2023/05/06 08:50:41;;;;;;;;;;;25.60;32.20;;;;;;5076825;28;19981;-66
2023/05/06 08:53:15;;;;;;;;;;;26.10;30.40;;;;;;5076532;28;19912;-66
2023/05/06 08:55:41;;;;;;;;;;;26.20;32.50;;;;;;5076602;28;19935;-66
2023/05/06 08:58:09;;;;;;;;;;;27.00;32.80;;;;;;5076582;28;19909;-66
2023/05/06 09:00:35;;;;;;;;;;;26.50;34.70;;;;;;5076370;28;19912;-66
2023/05/06 09:03:01;;;;;;;;;;;26.90;32.90;;;;;;5076402;28;19912;-66
2023/05/06 09:05:27;;;;;;;;;;;27.00;32.00;;;;;;5076346;28;19934;-66
2023/05/06 09:07:53;;;;;;;;;;;26.80;30.90;;;;;;5076376;28;19995;-66
2023/05/06 09:10:19;;;;;;;;;;;27.10;35.10;;;;;;5076081;28;19916;-66
2023/05/06 09:12:45;;;;;;;;;;;26.30;30.40;;;;;;5076439;28;19912;-65
2023/05/06 09:15:11;;;;;;;;;;;26.40;32.10;;;;;;5076087;28;19948;-66
2023/05/06 09:17:37;;;;;;;;;;;27.20;31.40;;;;;;5076016;28;19920;-65
2023/05/06 09:20:05;;;;;;;;;;;27.80;30.20;;;;;;5076106;28;19920;-66
2023/05/06 09:22:31;;;;;;;;;;;26.90;28.30;;;;;;5057788;28;20008;-65
2023/05/06 09:24:59;;;;;;;;;;;27.20;29.10;;;;;;5074736;28;20437;-65
2023/05/06 09:27:28;;;;;;;;;;;28.00;30.30;;;;;;5075999;28;19956;-66
2023/05/06 09:30:00;;;;;;;;;;;27.50;29.00;;;;;;5075810;28;19966;-66
2023/05/06 09:32:26;;;;;;;;;;;27.40;34.30;;;;;;5068173;28;19943;-65
2023/05/06 09:34:53;;;;;;;;;;;28.40;34.00;;;;;;5075750;28;20006;-65
2023/05/06 09:37:19;;;;;;;;;;;29.10;33.60;;;;;;5075754;28;19966;-66
2023/05/06 09:39:45;;;;;;;;;;;29.30;30.90;;;;;;5075598;28;19919;-65
2023/05/06 09:42:12;;;;;;;;;;;28.60;31.70;;;;;;5075320;28;19916;-66
2023/05/06 09:44:38;;;;;;;;;;;28.30;30.30;;;;;;5075495;28;19924;-66
2023/05/06 09:47:04;;;;;;;;;;;27.30;31.10;;;;;;5075381;28;19909;-65
2023/05/06 09:49:30;;;;;;;;;;;28.30;34.20;;;;;;5075524;28;19912;-66
2023/05/06 09:51:56;;;;;;;;;;;28.90;33.40;;;;;;5075432;28;19912;-66
2023/05/06 09:54:22;;;;;;;;;;;29.10;32.00;;;;;;5075420;28;19913;-66
2023/05/06 09:56:49;;;;;;;;;;;29.50;34.80;;;;;;5075416;28;20010;-66
2023/05/06 09:59:17;;;;;;;;;;;29.10;32.40;;;;;;5075326;28;19992;-66
2023/05/06 10:01:43;;;;;;;;;;;28.90;30.00;;;;;;5075090;28;19923;-66
2023/05/06 10:04:11;;;;;;;;;;;28.50;31.40;;;;;;5075265;28;19920;-66
2023/05/06 10:06:40;;;;;;;;;;;27.80;31.50;;;;;;5075308;28;20175;-65
2023/05/06 10:09:06;;;;;;;;;;;28.60;33.70;;;;;;5075025;28;19915;-66
2023/05/06 10:11:32;;;;;;;;;;;28.10;30.90;;;;;;5075182;28;20351;-66
2023/05/06 10:13:59;;;;;;;;;;;28.70;31.90;;;;;;5074949;28;19952;-66
2023/05/06 10:16:24;;;;;;;;;;;29.50;30.50;;;;;;5075036;28;19917;-65
2023/05/06 10:18:51;;;;;;;;;;;29.30;30.20;;;;;;5075015;28;19924;-66
2023/05/06 10:21:20;;;;;;;;;;;28.90;29.40;;;;;;5074750;28;19928;-66
2023/05/06 10:23:51;;;;;;;;;;;29.70;33.60;;;;;;5074902;28;19917;-66
2023/05/06 10:26:18;;;;;;;;;;;30.00;31.80;;;;;;5074936;28;20007;-66
2023/05/06 10:28:48;;;;;;;;;;;30.10;30.00;;;;;;5074951;28;19923;-66
2023/05/06 10:31:14;;;;;;;;;;;29.30;28.70;;;;;;5074780;28;19935;-65
2023/05/06 10:33:43;;;;;;;;;;;29.10;30.00;;;;;;5074664;28;20038;-66
2023/05/06 10:36:24;;;;;;;;;;;30.00;31.70;;;;;;5074721;28;19912;-66
2023/05/06 10:38:55;;;;;;;;;;;30.60;32.40;;;;;;5074863;28;19917;-66
2023/05/06 10:41:26;;;;;;;;;;;30.40;27.90;;;;;;5074693;28;19919;-66
2023/05/06 10:43:55;;;;;;;;;;;30.20;27.30;;;;;;5074605;28;19923;-66
2023/05/06 10:46:22;;;;;;;;;;;30.40;28.90;;;;;;5074693;28;19913;-66
2023/05/06 10:49:12;;;;;;;;;;;30.10;28.90;;;;;;5074631;28;20390;-66
2023/05/06 10:51:45;;;;;;;;;;;30.10;29.90;;;;;;5056523;28;19917;-66
2023/05/06 10:54:17;;;;;;;;;;;30.40;30.00;;;;;;5074695;28;20328;-66
2023/05/06 10:56:49;;;;;;;;;;;30.50;29.20;;;;;;5074543;28;19943;-66
2023/05/06 10:59:22;;;;;;;;;;;31.10;29.90;;;;;;5074623;28;20578;-66
2023/05/06 11:02:08;;;;;;;;;;;30.90;27.20;;;;;;5074563;28;19951;-66
2023/05/06 11:04:34;;;;;;;;;;;30.30;25.90;;;;;;5073884;28;19999;-66
2023/05/06 11:07:07;;;;;;;;;;;29.50;31.00;;;;;;5074619;28;19966;-66
2023/05/06 11:09:32;;;;;;;;;;;30.20;30.70;;;;;;5074240;28;19922;-66
2023/05/06 11:12:00;;;;;;;;;;;30.40;26.80;;;;;;5074423;28;19916;-66
2023/05/06 11:14:27;;;;;;;;;;;30.20;27.90;;;;;;5074562;28;19916;-66
2023/05/06 11:16:55;;;;;;;;;;;31.00;27.70;;;;;;5074276;28;20389;-65
2023/05/06 11:19:22;;;;;;;;;;;30.60;26.40;;;;;;5074324;28;19921;-66
2023/05/06 11:21:48;;;;;;;;;;;29.70;27.40;;;;;;5074463;28;20011;-66
2023/05/06 11:24:20;;;;;;;;;;;29.90;27.10;;;;;;5074555;28;19924;-66
2023/05/06 11:26:46;;;;;;;;;;;30.90;28.10;;;;;;5074299;28;19912;-66
2023/05/06 11:29:14;;;;;;;;;;;31.60;26.70;;;;;;5074149;28;19913;-66
2023/05/06 11:31:41;;;;;;;;;;;32.00;25.80;;;;;;5074205;28;19915;-66
2023/05/06 11:34:07;;;;;;;;;;;31.50;24.90;;;;;;5074268;28;19992;-66
2023/05/06 11:36:35;;;;;;;;;;;29.80;25.70;;;;;;5074318;28;20218;-66
2023/05/06 11:39:04;;;;;;;;;;;30.70;26.00;;;;;;5074112;28;19913;-65
2023/05/06 11:41:30;;;;;;;;;;;31.20;25.40;;;;;;5074547;28;20350;-66
2023/05/06 11:43:56;;;;;;;;;;;30.90;27.00;;;;;;5073850;28;19920;-66
2023/05/06 11:46:22;;;;;;;;;;;30.70;25.40;;;;;;5074770;28;19916;-66
2023/05/06 11:48:49;;;;;;;;;;;30.80;27.60;;;;;;5077993;28;19919;-66
2023/05/06 11:51:15;;;;;;;;;;;31.40;26.90;;;;;;5077661;28;20397;-66
2023/05/06 11:53:41;;;;;;;;;;;31.80;27.90;;;;;;5077752;28;19954;-66
2023/05/06 11:56:06;;;;;;;;;;;32.00;26.70;;;;;;5077763;28;20289;-66
2023/05/06 11:58:32;;;;;;;;;;;32.40;26.90;;;;;;5077598;28;20309;-66
2023/05/06 12:00:59;;;;;;;;;;;31.00;24.80;;;;;;5077513;28;19920;-66
2023/05/06 12:03:27;;;;;;;;;;;31.70;26.30;;;;;;5077582;28;19920;-66
2023/05/06 12:05:53;;;;;;;;;;;32.00;26.50;;;;;;5077411;28;20391;-65
2023/05/06 12:08:24;;;;;;;;;;;31.60;25.10;;;;;;5077439;28;19912;-65
2023/05/06 12:10:50;;;;;;;;;;;30.80;24.20;;;;;;5077582;28;19919;-66
2023/05/06 12:13:16;;;;;;;;;;;30.40;25.70;;;;;;5077150;28;19913;-66
2023/05/06 12:15:43;;;;;;;;;;;31.20;27.30;;;;;;5077289;28;19951;-66
2023/05/06 12:18:08;;;;;;;;;;;31.40;24.90;;;;;;5077265;28;19923;-66
2023/05/06 12:20:34;;;;;;;;;;;31.70;24.50;;;;;;5077263;28;19912;-66
2023/05/06 12:23:13;;;;;;;;;;;31.40;24.00;;;;;;5077078;28;20270;-66
2023/05/06 12:25:40;;;;;;;;;;;31.60;25.00;;;;;;5077141;28;19916;-66
2023/05/06 12:28:12;;;;;;;;;;;31.90;25.50;;;;;;5077193;28;19946;-66
2023/05/06 12:30:38;;;;;;;;;;;31.60;26.20;;;;;;5077432;28;19921;-66
2023/05/06 12:33:05;;;;;;;;;;;31.90;26.00;;;;;;5077295;28;19913;-66
2023/05/06 12:35:31;;;;;;;;;;;31.20;27.70;;;;;;5077144;28;19916;-66
2023/05/06 12:38:06;;;;;;;;;;;30.80;25.80;;;;;;5076905;28;20278;-66
2023/05/06 12:40:32;;;;;;;;;;;30.10;25.30;;;;;;5076967;28;20382;-66
2023/05/06 12:42:58;;;;;;;;;;;29.80;26.70;;;;;;5076825;28;20021;-66
2023/05/06 12:45:24;;;;;;;;;;;28.40;26.20;;;;;;5076647;28;19923;-66
2023/05/06 12:47:57;;;;;;;;;;;28.90;26.00;;;;;;5076791;28;20003;-66
2023/05/06 12:50:36;;;;;;;;;;;28.30;27.70;;;;;;5076638;28;19919;-66
2023/05/06 12:53:02;;;;;;;;;;;27.30;27.70;;;;;;5076784;28;19913;-66
2023/05/06 12:55:29;;;;;;;;;;;27.50;27.80;;;;;;5076631;28;19970;-66
2023/05/06 12:57:55;;;;;;;;;;;28.40;27.20;;;;;;5075311;28;19935;-66
2023/05/06 13:00:21;;;;;;;;;;;28.70;27.30;;;;;;5076622;28;19913;-66
2023/05/06 13:02:46;;;;;;;;;;;29.00;32.00;;;;;;5076458;28;19917;-66
2023/05/06 13:05:13;;;;;;;;;;;29.60;28.80;;;;;;5076251;28;19939;-66
2023/05/06 13:07:39;;;;;;;;;;;29.60;26.20;;;;;;5076410;28;19943;-67
2023/05/06 13:10:05;;;;;;;;;;;29.70;25.80;;;;;;5076180;28;19912;-66
2023/05/06 13:12:31;;;;;;;;;;;30.00;27.50;;;;;;5076277;28;20277;-66
2023/05/06 13:14:57;;;;;;;;;;;29.70;25.00;;;;;;5076303;28;20010;-66
2023/05/06 13:17:23;;;;;;;;;;;29.00;26.90;;;;;;5076100;28;20270;-66
2023/05/06 13:19:49;;;;;;;;;;;28.50;27.50;;;;;;5075884;28;19985;-66
2023/05/06 13:22:15;;;;;;;;;;;29.20;28.10;;;;;;5075948;28;19919;-66
2023/05/06 13:24:41;;;;;;;;;;;29.40;27.60;;;;;;5075989;28;20270;-66
2023/05/06 13:27:07;;;;;;;;;;;29.60;27.70;;;;;;5075650;28;19912;-66
2023/05/06 13:29:33;;;;;;;;;;;29.90;27.20;;;;;;5075958;28;19948;-66
2023/05/06 13:31:59;;;;;;;;;;;30.10;26.40;;;;;;5075825;28;19908;-66
2023/05/06 13:34:25;;;;;;;;;;;29.30;26.90;;;;;;5075617;28;19935;-67
2023/05/06 13:36:53;;;;;;;;;;;29.60;25.80;;;;;;5075930;28;19956;-66
2023/05/06 13:39:19;;;;;;;;;;;29.50;26.40;;;;;;5075953;28;19959;-66
2023/05/06 13:41:46;;;;;;;;;;;30.00;28.40;;;;;;5075685;28;19912;-66
2023/05/06 13:44:12;;;;;;;;;;;29.60;27.10;;;;;;5075695;28;19924;-66
2023/05/06 13:46:38;;;;;;;;;;;29.80;28.10;;;;;;5075295;28;19908;-66
2023/05/06 13:49:04;;;;;;;;;;;29.30;26.30;;;;;;5075546;28;20366;-66
2023/05/06 13:51:32;;;;;;;;;;;29.60;28.10;;;;;;5075745;28;20013;-66
2023/05/06 13:53:58;;;;;;;;;;;29.60;25.70;;;;;;5075442;28;19971;-66
2023/05/06 13:56:23;;;;;;;;;;;28.70;27.80;;;;;;5075420;28;19917;-66
2023/05/06 13:58:49;;;;;;;;;;;28.90;27.00;;;;;;5075653;28;19920;-66
2023/05/06 14:01:15;;;;;;;;;;;28.90;28.00;;;;;;5075234;28;19942;-66
2023/05/06 14:03:41;;;;;;;;;;;28.70;25.80;;;;;;5075200;28;19916;-66
2023/05/06 14:06:08;;;;;;;;;;;28.50;27.20;;;;;;5075370;28;20010;-68
2023/05/06 14:08:34;;;;;;;;;;;28.70;26.90;;;;;;5075227;28;20007;-66
2023/05/06 14:11:00;;;;;;;;;;;28.00;26.00;;;;;;5075176;28;19952;-66
2023/05/06 14:13:26;;;;;;;;;;;28.00;26.40;;;;;;5075348;28;19916;-66
2023/05/06 14:15:53;;;;;;;;;;;27.80;27.10;;;;;;5074985;28;20274;-66
2023/05/06 14:18:19;;;;;;;;;;;28.00;28.00;;;;;;5075154;28;19920;-66
2023/05/06 14:20:45;;;;;;;;;;;27.80;27.40;;;;;;5075011;28;19913;-66